Flight Track Log - Related Links

Times and Time Zones

All times are in EDT time to prevent confusion due to time zone crossing. See the DAL837 flight status page for this flight to view local times or setup timezone preferences in your user account.

Time Position Orientation Groundspeed Altitude Reporting Facility
EDT Latitude Longitude Course Direction KTS MPH feet Rate Location/Type
Thu 10:50:22 AM 33.6390 -84.4270 149° Southeast 11 13  Level FlightAware ADS-B
Thu 10:56:00 AM 33.6380 -84.4270 180° South 19 22 115 Level FlightAware ADS-B
Thu 10:56:30 AM 33.6370 -84.4270 180° South 22 25 194 Level FlightAware ADS-B
Thu 10:57:14 AM 33.6360 -84.4230 107° East 28 32 207 Level FlightAware ADS-B
Thu 10:57:40 AM 33.6370 -84.4220 40° Northeast 20 23 229 Level FlightAware ADS-B
Thu 10:57:50 AM 33.6370 -84.4210 90° East 21 24 244 Level FlightAware ADS-B
Thu 10:58:32 AM 33.6370 -84.4150 90° East 24 28 250 Level FlightAware ADS-B
Thu 10:58:49 AM 33.6370 -84.4130 90° East 22 25 281 Level FlightAware ADS-B
Thu 10:59:10 AM 33.6370 -84.4110 90° East 26 30 295 Level FlightAware ADS-B
Thu 10:59:58 AM 33.6370 -84.4090 90° East 15 17 316 Level FlightAware ADS-B
Thu 11:00:25 AM 33.6370 -84.4080 90° East 21 24 375 Level FlightAware ADS-B
Thu 11:00:37 AM 33.6360 -84.4080 180° South 20 23 419 Level FlightAware ADS-B
Thu 11:00:54 AM 33.6360 -84.4070 90° East 20 23 442 Level FlightAware ADS-B
Thu 11:01:19 AM 33.6350 -84.4070 180° South 17 20 480 Level FlightAware ADS-B
Thu 11:01:45 AM 33.6350 -84.4080 270° West 14 16 549 Level FlightAware ADS-B
Thu 11:03:12 AM 33.6350 -84.4090 270° West 27 31 644 Level FlightAware ADS-B
Thu 11:03:34 AM 33.6350 -84.4180 270° West 110 127 1,548 Level FlightAware ADS-B
Thu 11:04:14 AM 33.6350 -84.4540 270° West 177 204 1,600 2,382 Climbing FlightAware ADS-B
Thu 11:04:42 AM 33.6350 -84.4830 270° West 180 207 2,700 1,500 Climbing FlightAware ADS-B
Thu 11:05:10 AM 33.6360 -84.5130 272° West 204 235 3,000 625 Climbing FlightAware ADS-B
Thu 11:05:30 AM 33.6360 -84.5380 270° West 229 264 3,200 686 Climbing FlightAware ADS-B
Thu 11:05:45 AM 33.6370 -84.5560 274° West 245 282 3,400 1,091 Climbing FlightAware ADS-B
Thu 11:06:14 AM 33.6440 -84.5980 281° West 271 312 4,000 1,789 Climbing FlightAware ADS-B
Thu 11:06:42 AM 33.6530 -84.6400 284° West 276 318 5,100 2,217 Climbing FlightAware ADS-B
Thu 11:07:00 AM 33.6590 -84.6670 285° West 281 323 5,700 2,000 Climbing FlightAware ADS-B
Thu 11:07:24 AM 33.6660 -84.7030 283° West 287 330 6,500 2,000 Climbing FlightAware ADS-B
Thu 11:07:36 AM 33.6700 -84.7220 284° West 289 333 6,900 2,045 Climbing FlightAware ADS-B
Thu 11:08:08 AM 33.6790 -84.7700 283° West 292 336 8,000 2,000 Climbing FlightAware ADS-B
Thu 11:08:21 AM 33.6830 -84.7920 282° West 295 339 8,400 1,857 Climbing FlightAware ADS-B
Thu 11:08:50 AM 33.6940 -84.8410 285° West 302 348 9,300 1,913 Climbing FlightAware ADS-B
Thu 11:09:30 AM 33.7060 -84.9050 283° West 305 351 10,600 1,350 Climbing FlightAware ADS-B
Thu 11:10:10 AM 33.7190 -84.9740 283° West 338 389 11,100 825 Climbing FlightAware ADS-B
Thu 11:10:50 AM 33.7350 -85.0520 284° West 366 421 11,700 1,032 Climbing FlightAware ADS-B
Thu 11:11:43 AM 33.7510 -85.1390 282° West 379 436 12,700 1,532 Climbing FlightAware ADS-B
Thu 11:12:24 AM 33.7710 -85.2460 283° West 387 445 14,100 1,694 Climbing FlightAware ADS-B
Thu 11:13:08 AM 33.7870 -85.3400 282° West 397 457 15,100 1,373 Climbing FlightAware ADS-B
Thu 11:13:47 AM 33.8010 -85.4230 281° West 403 464 16,000 1,385 Climbing FlightAware ADS-B
Thu 11:14:26 AM 33.8160 -85.5120 281° West 411 473 16,900 1,213 Climbing FlightAware ADS-B
Thu 11:15:16 AM 33.8340 -85.6240 281° West 420 483 17,800 667 Climbing FlightAware ADS-B
Thu 11:16:05 AM 33.8530 -85.7220 283° West 421 484 18,000 1,295 Climbing FlightAware ADS-B
Thu 11:16:44 AM 33.8930 -85.8190 296° West 424 488 19,700 1,159 Climbing FlightAware ADS-B
Thu 11:18:30 AM 33.9600 -86.0350 291° West 427 491 20,800 465 Climbing FlightAware ADS-B
Thu 11:19:06 AM 33.9810 -86.1040 290° West 427 491 20,800  Level FlightAware ADS-B
Thu 11:19:54 AM 34.0080 -86.1950 290° West 427 491 20,800  Level FlightAware ADS-B
Thu 11:20:31 AM 34.0290 -86.2660 290° West 427 491 20,800  Level FlightAware ADS-B
Thu 11:21:20 AM 34.0570 -86.3590 290° West 427 491 20,800 2,074 Level FlightAware ADS-B
Thu 11:22:47 AM 34.0481 -86.6664 290° West 450 518 25,500 1,718 Climbing Atlanta Center
Thu 11:25:14 AM 34.0903 -87.0264 278° West 446 513 27,500 696 Climbing Memphis Center
Thu 11:26:14 AM 34.1069 -87.1764 278° West 447 514 27,900 550 Climbing Memphis Center
Thu 11:27:14 AM 34.1278 -87.3511 278° West 480 552 28,600 650 Climbing Memphis Center
Thu 11:28:14 AM 34.1439 -87.5036 277° West 474 545 29,200 500 Climbing Memphis Center
Thu 11:29:14 AM 34.1575 -87.6414 277° West 474 545 29,600 350 Climbing Memphis Center
Thu 11:30:14 AM 34.1733 -87.7989 277° West 466 536 29,900 550 Climbing Memphis Center
Thu 11:31:14 AM 34.1931 -87.9514 279° West 466 536 30,700 700 Climbing Memphis Center
Thu 11:32:14 AM 34.2022 -88.1019 274° West 459 528 31,300 500 Climbing Memphis Center
Thu 11:33:14 AM 34.2050 -88.2650 271° West 467 537 31,700 350 Climbing Memphis Center
Thu 11:34:14 AM 34.2097 -88.4206 272° West 472 543 32,000 150 Climbing Memphis Center
Thu 11:35:14 AM 34.2142 -88.5739 272° West 472 543 32,000  Level Memphis Center
Thu 11:36:14 AM 34.2161 -88.7294 271° West 472 543 32,000 150 Level Memphis Center
Thu 11:37:14 AM 34.2183 -88.8953 271° West 462 532 32,300 500 Climbing Memphis Center
Thu 11:38:14 AM 34.2222 -89.0483 272° West 454 522 33,000 650 Climbing Memphis Center
Thu 11:39:14 AM 34.2236 -89.2017 271° West 454 522 33,600 500 Climbing Memphis Center
Thu 11:40:14 AM 34.2269 -89.3522 272° West 454 522 34,000 200 Climbing Memphis Center
Thu 11:41:14 AM 34.2281 -89.5056 271° West 454 522 34,000  Level Memphis Center
Thu 11:42:14 AM 34.2311 -89.6486 272° West 459 528 34,000  Level Memphis Center
Thu 11:43:14 AM 34.2342 -89.8019 271° West 459 528 34,000  Level Memphis Center
Thu 11:44:14 AM 34.2347 -89.9578 270° West 459 528 34,000  Level Memphis Center
Thu 11:45:14 AM 34.2372 -90.1136 271° West 459 528 34,000  Level Memphis Center
Thu 11:46:14 AM 34.2394 -90.2717 271° West 459 528 34,000  Level Memphis Center
Thu 11:47:14 AM 34.2417 -90.4450 271° West 459 528 34,000  Level Memphis Center
Thu 11:48:14 AM 34.2433 -90.5983 271° West 459 528 34,000  Level Memphis Center
Thu 11:49:14 AM 34.2450 -90.7567 271° West 459 528 34,000  Level Memphis Center
Thu 11:50:14 AM 34.2444 -90.9125 270° West 459 528 34,000  Level Memphis Center
Thu 11:51:14 AM 34.2458 -91.0733 271° West 473 544 34,000  Level Memphis Center
Thu 11:52:14 AM 34.2469 -91.2267 271° West 473 544 34,000  Level Memphis Center
Thu 11:53:14 AM 34.2478 -91.3850 270° West 473 544 34,000  Level Memphis Center
Thu 11:54:14 AM 34.2569 -91.5308 274° West 479 551 34,000  Level Memphis Center
Thu 11:55:14 AM 34.2472 -91.6814 266° West 464 534 34,000  Level Memphis Center
Thu 11:56:14 AM 34.2472 -91.8497 270° West 459 528 34,000  Level Memphis Center
Thu 11:57:14 AM 34.2475 -92.0031 270° West 459 528 34,000  Level Memphis Center
Thu 11:58:14 AM 34.2494 -92.1564 271° West 459 528 34,000  Level Memphis Center
Thu 11:59:14 AM 34.2517 -92.2969 271° West 459 528 34,000  Level Memphis Center
Thu 12:00:14 PM 34.2533 -92.4528 271° West 459 528 34,000  Level Memphis Center
Thu 12:01:14 PM 34.2528 -92.6086 270° West 464 534 34,000 269 Level Memphis Center
Thu 12:06:56 PM 34.2600 -93.5350 270° West 477 549 35,800 278 Climbing FlightAware ADS-B
Thu 12:07:42 PM 34.2600 -93.6380 270° West 477 549 35,800  Level FlightAware ADS-B
Thu 12:08:19 PM 34.2600 -93.7220 270° West 477 549 35,800  Level FlightAware ADS-B
Thu 12:09:07 PM 34.2600 -93.8310 270° West 477 549 35,800 129 Level FlightAware ADS-B
Thu 12:09:52 PM 34.2620 -94.0010 271° West 474 545 36,000 122 Climbing FlightAware ADS-B
Thu 12:10:45 PM 34.2700 -94.1230 275° West 473 544 36,000  Level FlightAware ADS-B
Thu 12:11:36 PM 34.2770 -94.2430 274° West 475 547 36,000  Level FlightAware ADS-B
Thu 12:12:17 PM 34.2830 -94.3640 273° West 475 547 36,000  Level FlightAware ADS-B
Thu 12:12:51 PM 34.2860 -94.4400 273° West 475 547 36,000  Level FlightAware ADS-B
Thu 12:13:40 PM 34.2970 -94.6070 275° West 474 545 36,000  Level FlightAware ADS-B
Thu 12:14:23 PM 34.3020 -94.7200 273° West 475 547 36,000  Level FlightAware ADS-B
Thu 12:14:59 PM 34.3070 -94.8150 274° West 476 548 36,000  Level FlightAware ADS-B
Thu 12:15:48 PM 34.3140 -94.9450 274° West 478 550 36,000  Level FlightAware ADS-B
Thu 12:16:30 PM 34.3190 -95.0600 273° West 480 552 36,000  Level FlightAware ADS-B
Thu 12:17:11 PM 34.3240 -95.1610 273° West 480 552 36,000  Level FlightAware ADS-B
Thu 12:17:52 PM 34.3290 -95.2780 273° West 479 551 36,000  Level FlightAware ADS-B
Thu 12:18:36 PM 34.3350 -95.3960 274° West 478 550 36,000  Level FlightAware ADS-B
Thu 12:19:18 PM 34.3400 -95.5090 273° West 478 550 36,000  Level FlightAware ADS-B
Thu 12:19:54 PM 34.3440 -95.6060 273° West 478 550 36,000  Level FlightAware ADS-B
Thu 12:20:35 PM 34.3490 -95.7140 273° West 477 549 36,000  Level FlightAware ADS-B
Thu 12:21:14 PM 34.3530 -95.8170 273° West 477 549 36,000  Level FlightAware ADS-B
Thu 12:21:58 PM 34.3580 -95.9370 273° West 478 550 36,000  Level FlightAware ADS-B
Thu 12:22:38 PM 34.3620 -96.0430 273° West 479 551 36,000  Level FlightAware ADS-B
Thu 12:23:24 PM 34.3670 -96.1660 273° West 479 551 36,000  Level FlightAware ADS-B
Thu 12:24:03 PM 34.3710 -96.2700 273° West 478 550 36,000  Level FlightAware ADS-B
Thu 12:24:43 PM 34.3750 -96.3760 273° West 476 548 36,000  Level FlightAware ADS-B
Thu 12:25:17 PM 34.3790 -96.4660 273° West 473 544 36,000  Level FlightAware ADS-B
Thu 12:26:00 PM 34.3830 -96.5750 273° West 472 543 36,000  Level FlightAware ADS-B
Thu 12:26:42 PM 34.3870 -96.6890 272° West 472 543 36,000  Level FlightAware ADS-B
Thu 12:27:28 PM 34.3910 -96.8130 272° West 472 543 36,000  Level FlightAware ADS-B
Thu 12:28:08 PM 34.3940 -96.9160 272° West 470 541 36,000  Level FlightAware ADS-B
Thu 12:28:53 PM 34.3980 -97.0330 272° West 470 541 36,000  Level FlightAware ADS-B
Thu 12:29:34 PM 34.4020 -97.1450 273° West 471 542 36,000  Level FlightAware ADS-B
Thu 12:30:08 PM 34.4040 -97.2330 272° West 472 543 36,000  Level FlightAware ADS-B
Thu 12:30:50 PM 34.4070 -97.3420 272° West 474 545 36,000  Level FlightAware ADS-B
Thu 12:31:27 PM 34.4100 -97.4360 272° West 474 545 36,000  Level FlightAware ADS-B
Thu 12:32:08 PM 34.4130 -97.5390 272° West 474 545 36,000  Level FlightAware ADS-B
Thu 12:33:18 PM 34.4180 -97.7320 272° West 475 547 36,000  Level FlightAware ADS-B
Thu 12:33:53 PM 34.4200 -97.8160 272° West 474 545 36,000  Level FlightAware ADS-B
Thu 12:34:35 PM 34.4230 -97.9370 272° West 473 544 36,000  Level FlightAware ADS-B
Thu 12:35:11 PM 34.4260 -98.0340 272° West 472 543 36,000  Level FlightAware ADS-B
Thu 12:35:57 PM 34.4290 -98.1550 272° West 470 541 36,000  Level FlightAware ADS-B
Thu 12:36:33 PM 34.4310 -98.2510 271° West 470 541 36,000  Level FlightAware ADS-B
Thu 12:37:08 PM 34.4320 -98.3320 271° West 469 540 36,000  Level FlightAware ADS-B
Thu 12:37:56 PM 34.4340 -98.4400 271° West 469 540 36,000  Level FlightAware ADS-B
Thu 12:38:45 PM 34.4350 -98.5490 271° West 469 540 36,000  Level FlightAware ADS-B
Thu 12:39:32 PM 34.4370 -98.6540 271° West 469 540 36,000  Level FlightAware ADS-B
Thu 12:40:09 PM 34.4380 -98.7370 271° West 469 540 36,000  Level FlightAware ADS-B
Thu 12:40:58 PM 34.4390 -98.8460 271° West 469 540 36,000  Level FlightAware ADS-B
Thu 12:41:34 PM 34.4410 -98.9270 272° West 469 540 36,000  Level FlightAware ADS-B
Thu 12:42:12 PM 34.4470 -99.1450 272° West 473 544 36,000  Level FlightAware ADS-B
Thu 12:42:56 PM 34.4470 -99.2440 270° West 473 544 36,000  Level FlightAware ADS-B
Thu 12:43:38 PM 34.4500 -99.3710 272° West 475 547 36,000  Level FlightAware ADS-B
Thu 12:44:22 PM 34.4510 -99.4920 271° West 473 544 36,000  Level FlightAware ADS-B
Thu 12:45:07 PM 34.4520 -99.5940 271° West 473 544 36,000  Level FlightAware ADS-B
Thu 12:46:00 PM 34.4540 -99.7380 271° West 472 543 36,000  Level FlightAware ADS-B
Thu 12:46:41 PM 34.4550 -99.8590 271° West 472 543 36,000  Level FlightAware ADS-B
Thu 12:47:27 PM 34.4560 -99.9810 271° West 472 543 36,000  Level FlightAware ADS-B
Thu 12:48:21 PM 34.4570 -100.1220 271° West 471 542 36,000  Level FlightAware ADS-B
Thu 12:49:03 PM 34.4580 -100.2350 271° West 473 544 36,000  Level FlightAware ADS-B
Thu 12:49:47 PM 34.4580 -100.3340 270° West 473 544 36,000  Level FlightAware ADS-B
Thu 12:50:36 PM 34.4580 -100.4450 270° West 473 544 36,000  Level FlightAware ADS-B
Thu 12:51:12 PM 34.4580 -100.5260 270° West 473 544 36,000  Level FlightAware ADS-B
Thu 12:52:26 PM 34.4580 -100.6930 270° West 473 544 36,000  Level FlightAware ADS-B
Thu 12:53:17 PM 34.4580 -100.8080 270° West 473 544 36,000  Level FlightAware ADS-B
Thu 12:53:53 PM 34.4580 -100.8890 270° West 473 544 36,000  Level FlightAware ADS-B
Thu 12:54:51 PM 34.4580 -101.0200 270° West 473 544 36,000  Level FlightAware ADS-B
Thu 12:55:51 PM 34.4580 -101.1550 270° West 473 544 36,000  Level FlightAware ADS-B
Thu 12:56:27 PM 34.4580 -101.2370 270° West 473 544 36,000  Level FlightAware ADS-B
Thu 12:57:23 PM 34.4580 -101.3630 270° West 473 544 36,000  Level FlightAware ADS-B
Thu 12:58:00 PM 34.4580 -101.4460 270° West 473 544 36,000  Level FlightAware ADS-B
Thu 12:59:00 PM 34.4580 -101.5820 270° West 473 544 36,000  Level FlightAware ADS-B
Thu 01:00:25 PM 34.4544 -102.0128 270° West 474 545 36,000  Level Albuquerque Center
Thu 01:01:27 PM 34.4539 -102.1728 270° West 475 547 36,000  Level Albuquerque Center
Thu 01:02:29 PM 34.4511 -102.3328 269° West 475 547 36,000  Level Albuquerque Center
Thu 01:03:31 PM 34.4497 -102.5281 270° West 479 551 36,000  Level Albuquerque Center
Thu 01:04:33 PM 34.4469 -102.6869 269° West 474 545 36,000  Level Albuquerque Center
Thu 01:05:35 PM 34.4453 -102.8478 269° West 476 548 36,000  Level Albuquerque Center
Thu 01:06:37 PM 34.4414 -103.0003 268° West 474 545 36,000  Level Albuquerque Center
Thu 01:07:39 PM 34.4392 -103.1611 269° West 472 543 36,000  Level Albuquerque Center
Thu 01:08:41 PM 34.4361 -103.3517 269° West 478 550 36,000  Level Albuquerque Center
Thu 01:09:43 PM 34.4336 -103.5122 269° West 475 547 36,000  Level Albuquerque Center
Thu 01:10:45 PM 34.4294 -103.6764 268° West 478 550 36,000  Level Albuquerque Center
Thu 01:11:47 PM 34.4239 -103.8422 268° West 484 557 36,000  Level Albuquerque Center
Thu 01:12:49 PM 34.4197 -104.0058 268° West 483 556 36,000  Level Albuquerque Center
Thu 01:13:50 PM 34.4161 -104.1700 269° West 481 554 36,000  Level Albuquerque Center
Thu 01:14:52 PM 34.4119 -104.3339 268° West 481 554 36,000  Level Albuquerque Center
Thu 01:15:54 PM 34.4072 -104.4978 268° West 481 554 36,000  Level Albuquerque Center
Thu 01:16:56 PM 34.4028 -104.6619 268° West 482 555 36,000  Level Albuquerque Center
Thu 01:17:58 PM 34.3975 -104.8519 268° West 480 552 36,000  Level Albuquerque Center
Thu 01:19:00 PM 34.3906 -105.0142 267° West 477 549 36,000  Level Albuquerque Center
Thu 01:20:02 PM 34.3861 -105.1761 268° West 476 548 36,000  Level Albuquerque Center
Thu 01:21:04 PM 34.3794 -105.3381 267° West 477 549 36,000  Level Albuquerque Center
Thu 01:26:43 PM 34.3540 -106.2710 267° West 490 564 36,000  Level FlightAware ADS-B
Thu 01:27:21 PM 34.3500 -106.3760 267° West 490 564 36,000  Level FlightAware ADS-B
Thu 01:28:10 PM 34.3450 -106.4970 267° West 491 565 36,000  Level FlightAware ADS-B
Thu 01:28:43 PM 34.3420 -106.6010 268° West 492 566 36,000  Level FlightAware ADS-B
Thu 01:29:31 PM 34.3380 -106.7300 268° West 488 562 36,000  Level FlightAware ADS-B
Thu 01:30:13 PM 34.3340 -106.8430 268° West 486 559 36,000  Level FlightAware ADS-B
Thu 01:30:57 PM 34.3290 -106.9640 267° West 486 559 36,000  Level FlightAware ADS-B
Thu 01:31:37 PM 34.3250 -107.0770 268° West 486 559 36,000  Level FlightAware ADS-B
Thu 01:32:30 PM 34.3190 -107.2160 267° West 488 562 36,000  Level FlightAware ADS-B
Thu 01:33:28 PM 34.3130 -107.3630 267° West 488 562 36,000  Level FlightAware ADS-B
Thu 01:34:28 PM 34.3070 -107.5020 267° West 488 562 36,000  Level FlightAware ADS-B
Thu 01:35:04 PM 34.3030 -107.5860 267° West 488 562 36,000  Level FlightAware ADS-B
Thu 01:35:52 PM 34.2990 -107.6970 268° West 488 562 36,000  Level FlightAware ADS-B
Thu 01:36:28 PM 34.2950 -107.7810 267° West 488 562 36,000  Level FlightAware ADS-B
Thu 01:37:28 PM 34.2890 -107.9200 267° West 488 562 36,000  Level FlightAware ADS-B
Thu 01:38:19 PM 34.2840 -108.0380 267° West 488 562 36,000  Level FlightAware ADS-B
Thu 01:38:56 PM 34.2800 -108.1240 267° West 488 562 36,000  Level FlightAware ADS-B
Thu 01:39:32 PM 34.2760 -108.2070 267° West 488 562 36,000  Level FlightAware ADS-B
Thu 01:40:09 PM 34.2730 -108.2930 268° West 488 562 36,000  Level FlightAware ADS-B
Thu 01:40:58 PM 34.2680 -108.4070 267° West 488 562 36,000  Level FlightAware ADS-B
Thu 01:41:35 PM 34.2640 -108.4930 267° West 488 562 36,000  Level FlightAware ADS-B
Thu 01:42:11 PM 34.2600 -108.5760 267° West 488 562 36,000  Level FlightAware ADS-B
Thu 01:42:49 PM 34.2570 -108.6640 268° West 488 562 36,000  Level FlightAware ADS-B
Thu 01:47:45 PM 34.1970 -109.6880 266° West 481 554 36,000  Level FlightAware ADS-B
Thu 01:48:25 PM 34.1900 -109.7970 266° West 483 556 36,000  Level FlightAware ADS-B
Thu 01:49:06 PM 34.1840 -109.9070 266° West 484 557 36,000  Level FlightAware ADS-B
Thu 01:49:49 PM 34.1770 -110.0250 266° West 484 557 36,000  Level FlightAware ADS-B
Thu 01:50:33 PM 34.1690 -110.1430 265° West 480 552 36,000  Level FlightAware ADS-B
Thu 01:51:09 PM 34.1630 -110.2410 266° West 479 551 36,000  Level FlightAware ADS-B
Thu 01:51:47 PM 34.1570 -110.3390 266° West 480 552 36,000  Level FlightAware ADS-B
Thu 01:52:31 PM 34.1500 -110.4580 266° West 480 552 36,000  Level FlightAware ADS-B
Thu 01:53:12 PM 34.1430 -110.5660 266° West 482 555 36,000  Level FlightAware ADS-B
Thu 01:53:55 PM 34.1350 -110.6790 265° West 481 554 36,000  Level FlightAware ADS-B
Thu 01:54:38 PM 34.1280 -110.7940 266° West 479 551 36,000  Level FlightAware ADS-B
Thu 01:55:19 PM 34.1200 -110.9020 265° West 478 550 36,000  Level FlightAware ADS-B
Thu 01:55:59 PM 34.1130 -111.0130 266° West 477 549 36,000  Level FlightAware ADS-B
Thu 01:56:44 PM 34.1050 -111.1270 265° West 478 550 36,000  Level FlightAware ADS-B
Thu 01:57:24 PM 34.0970 -111.2310 265° West 479 551 36,000  Level FlightAware ADS-B
Thu 01:58:07 PM 34.0890 -111.3530 266° West 476 548 36,000  Level FlightAware ADS-B
Thu 01:58:48 PM 34.0810 -111.4600 265° West 474 545 36,000  Level FlightAware ADS-B
Thu 01:59:31 PM 34.0730 -111.5750 265° West 473 544 36,000  Level FlightAware ADS-B
Thu 02:00:09 PM 34.0650 -111.6740 264° West 475 547 36,000  Level FlightAware ADS-B
Thu 02:00:49 PM 34.0570 -111.7790 265° West 476 548 36,000  Level FlightAware ADS-B
Thu 02:01:29 PM 34.0500 -111.8850 265° West 477 549 36,000  Level FlightAware ADS-B
Thu 02:02:09 PM 34.0420 -111.9900 265° West 476 548 36,000  Level FlightAware ADS-B
Thu 02:02:55 PM 34.0320 -112.1120 264° West 475 547 36,000  Level FlightAware ADS-B
Thu 02:03:35 PM 34.0240 -112.2170 265° West 476 548 36,000  Level FlightAware ADS-B
Thu 02:04:15 PM 34.0150 -112.3240 264° West 478 550 36,000  Level FlightAware ADS-B
Thu 02:05:02 PM 34.0060 -112.4390 265° West 478 550 36,000  Level FlightAware ADS-B
Thu 02:05:41 PM 33.9970 -112.5530 265° West 478 550 36,000  Level FlightAware ADS-B
Thu 02:06:21 PM 33.9880 -112.6570 264° West 478 550 36,000  Level FlightAware ADS-B
Thu 02:07:07 PM 33.9780 -112.7780 264° West 478 550 36,000  Level FlightAware ADS-B
Thu 02:07:47 PM 33.9690 -112.8860 264° West 478 550 36,000  Level FlightAware ADS-B
Thu 02:08:30 PM 33.9600 -112.9970 264° West 479 551 36,000  Level FlightAware ADS-B
Thu 02:09:11 PM 33.9500 -113.1070 264° West 479 551 36,000  Level FlightAware ADS-B
Thu 02:09:55 PM 33.9400 -113.2230 264° West 479 551 36,000 143 Level FlightAware ADS-B
Thu 02:10:35 PM 33.9310 -113.3310 264° West 480 552 36,200 387 Climbing FlightAware ADS-B
Thu 02:10:57 PM 33.9260 -113.3890 264° West 480 552 36,400 563 Climbing FlightAware ADS-B
Thu 02:11:39 PM 33.9180 -113.4800 264° West 477 549 36,800 585 Climbing FlightAware ADS-B
Thu 02:12:19 PM 33.9070 -113.6020 264° West 475 547 37,200 512 Climbing FlightAware ADS-B
Thu 02:13:01 PM 33.8960 -113.7170 263° West 475 547 37,500 341 Climbing FlightAware ADS-B
Thu 02:13:47 PM 33.8850 -113.8370 264° West 477 549 37,700 308 Climbing FlightAware ADS-B
Thu 02:14:19 PM 33.8780 -113.9210 264° West 477 549 37,900 234 Climbing FlightAware ADS-B
Thu 02:15:04 PM 33.8670 -114.0370 264° West 477 549 38,000 70 Climbing FlightAware ADS-B
Thu 02:15:45 PM 33.8560 -114.1480 263° West 475 547 38,000  Level FlightAware ADS-B
Thu 02:16:34 PM 33.8450 -114.2650 264° West 474 545 38,000  Level FlightAware ADS-B
Thu 02:17:46 PM 33.8280 -114.4260 263° West 474 545 38,000  Level FlightAware ADS-B
Thu 02:18:25 PM 33.8160 -114.5680 264° West 481 554 38,000  Level FlightAware ADS-B
Thu 02:19:17 PM 33.8030 -114.6940 263° West 481 554 38,000  Level FlightAware ADS-B
Thu 02:20:05 PM 33.7920 -114.8030 263° West 481 554 38,000  Level FlightAware ADS-B
Thu 02:20:39 PM 33.7840 -114.8790 263° West 481 554 38,000  Level FlightAware ADS-B
Thu 02:21:16 PM 33.7760 -114.9630 263° West 481 554 38,000  Level FlightAware ADS-B
Thu 02:22:05 PM 33.7640 -115.0740 263° West 481 554 38,000  Level FlightAware ADS-B
Thu 02:22:39 PM 33.7560 -115.1500 263° West 481 554 38,000  Level FlightAware ADS-B
Thu 02:23:16 PM 33.7480 -115.2340 263° West 481 554 38,000  Level FlightAware ADS-B
Thu 02:24:04 PM 33.7370 -115.3420 263° West 481 554 38,000  Level FlightAware ADS-B
Thu 02:24:40 PM 33.7290 -115.4240 263° West 481 554 38,000  Level FlightAware ADS-B
Thu 02:25:17 PM 33.7200 -115.5070 263° West 481 554 38,000  Level FlightAware ADS-B
Thu 02:26:07 PM 33.6900 -115.7870 263° West 475 547 38,000  Level FlightAware ADS-B
Thu 02:26:47 PM 33.6790 -115.8910 263° West 474 545 38,000  Level FlightAware ADS-B
Thu 02:27:31 PM 33.6660 -116.0080 262° West 473 544 38,000  Level FlightAware ADS-B
Thu 02:27:58 PM 33.6590 -116.0670 262° West 473 544 38,000  Level FlightAware ADS-B
Thu 02:28:45 PM 33.6440 -116.2020 262° West 474 545 38,000  Level FlightAware ADS-B
Thu 02:29:24 PM 33.6330 -116.3010 262° West 473 544 38,000  Level FlightAware ADS-B
Thu 02:30:07 PM 33.6200 -116.4130 262° West 472 543 38,000  Level FlightAware ADS-B
Thu 02:30:47 PM 33.6090 -116.5150 263° West 474 545 38,000  Level FlightAware ADS-B
Thu 02:31:29 PM 33.5960 -116.6270 262° West 475 547 38,000  Level FlightAware ADS-B
Thu 02:32:09 PM 33.5830 -116.7340 262° West 476 548 38,000  Level FlightAware ADS-B
Thu 02:32:49 PM 33.5710 -116.8380 262° West 478 550 38,000  Level FlightAware ADS-B
Thu 02:33:29 PM 33.5590 -116.9410 262° West 478 550 38,000  Level FlightAware ADS-B
Thu 02:34:10 PM 33.5460 -117.0490 262° West 479 551 38,000  Level FlightAware ADS-B
Thu 02:34:53 PM 33.5330 -117.1620 262° West 480 552 38,000  Level FlightAware ADS-B
Thu 02:35:33 PM 33.5200 -117.2700 262° West 480 552 38,000  Level FlightAware ADS-B
Thu 02:36:15 PM 33.5060 -117.3800 261° West 480 552 38,000  Level FlightAware ADS-B
Thu 02:36:59 PM 33.4930 -117.4920 262° West 481 554 38,000  Level FlightAware ADS-B
Thu 02:37:31 PM 33.4820 -117.5790 261° West 479 551 38,000  Level FlightAware ADS-B
Thu 02:38:19 PM 33.4670 -117.7040 262° West 480 552 38,000  Level FlightAware ADS-B
Thu 02:38:59 PM 33.4530 -117.8100 261° West 480 552 38,000  Level FlightAware ADS-B
Thu 02:39:35 PM 33.4410 -117.9040 261° West 479 551 38,000  Level FlightAware ADS-B
Thu 02:40:15 PM 33.4280 -118.0080 262° West 478 550 38,000  Level FlightAware ADS-B
Thu 02:40:55 PM 33.4150 -118.1140 262° West 477 549 38,000  Level FlightAware ADS-B
Thu 02:41:35 PM 33.4020 -118.2170 261° West 476 548 38,000  Level FlightAware ADS-B
Thu 02:42:21 PM 33.3760 -118.3320 255° West 469 540 38,000  Level FlightAware ADS-B
Thu 02:43:05 PM 33.3360 -118.4370 246° West 465 535 38,000  Level FlightAware ADS-B
Thu 02:43:47 PM 33.2890 -118.5260 238° Southwest 460 529 38,000  Level FlightAware ADS-B
Thu 02:44:19 PM 33.2450 -118.5900 231° Southwest 458 527 38,000  Level FlightAware ADS-B
Thu 02:45:03 PM 33.1820 -118.6730 228° Southwest 459 528 38,000  Level FlightAware ADS-B
Thu 02:45:43 PM 33.1260 -118.7480 228° Southwest 458 527 38,000  Level FlightAware ADS-B
Thu 02:46:22 PM 33.0750 -118.8150 228° Southwest 458 527 38,000  Level FlightAware ADS-B
Thu 02:47:03 PM 33.0130 -118.8960 228° Southwest 458 527 38,000  Level FlightAware ADS-B
Thu 02:47:45 PM 32.9520 -118.9750 227° Southwest 457 526 38,000  Level FlightAware ADS-B
Thu 02:48:21 PM 32.9000 -119.0440 228° Southwest 457 526 38,000  Level FlightAware ADS-B
Thu 02:48:57 PM 32.8500 -119.1080 227° Southwest 457 526 38,000  Level FlightAware ADS-B
Thu 02:49:55 PM 32.7680 -119.2150 228° Southwest 457 526 38,000  Level FlightAware ADS-B
Thu 02:50:39 PM 32.7100 -119.2900 227° Southwest 457 526 38,000  Level FlightAware ADS-B
Thu 02:51:19 PM 32.6480 -119.3700 227° Southwest 458 527 38,000  Level FlightAware ADS-B
Thu 02:51:55 PM 32.5950 -119.4390 228° Southwest 458 527 38,000  Level FlightAware ADS-B
Thu 02:53:02 PM 32.5040 -119.5550 227° Southwest 457 526 38,000  Level FlightAware ADS-B
Thu 02:53:31 PM 32.4590 -119.6210 231° Southwest 461 531 38,000  Level FlightAware ADS-B
Thu 02:54:17 PM 32.4050 -119.7170 236° Southwest 461 531 38,000  Level FlightAware ADS-B
Thu 02:54:58 PM 32.3590 -119.8010 237° Southwest 460 529 38,000  Level FlightAware ADS-B
Thu 02:55:39 PM 32.3100 -119.8880 236° Southwest 457 526 38,000  Level FlightAware ADS-B
Thu 02:56:21 PM 32.2620 -119.9740 237° Southwest 456 525 38,000  Level FlightAware ADS-B
Thu 02:56:59 PM 32.2160 -120.0560 236° Southwest 455 524 38,000  Level FlightAware ADS-B
Thu 02:57:37 PM 32.1710 -120.1360 236° Southwest 456 525 38,000  Level FlightAware ADS-B
Thu 02:58:19 PM 32.1220 -120.2210 236° Southwest 457 526 38,000  Level FlightAware ADS-B
Thu 02:58:59 PM 32.0750 -120.3060 237° Southwest 455 524 38,000  Level FlightAware ADS-B
Thu 02:59:59 PM 32.0080 -120.4320 238° Southwest 455 524 38,000  Level FlightAware ADS-B
Thu 03:00:46 PM 31.9670 -120.5200 241° Southwest 455 524 38,000  Level FlightAware ADS-B
Thu 03:01:46 PM 31.9060 -120.6520 241° Southwest 454 522 38,000  Level FlightAware ADS-B
Thu 03:02:55 PM 31.8390 -120.7950 241° Southwest 454 522 38,000  Level FlightAware ADS-B
Thu 03:03:31 PM 31.8080 -120.8620 241° Southwest 454 522 38,000  Level FlightAware ADS-B
Thu 03:04:15 PM 31.7550 -120.9740 241° Southwest 453 521 38,000 56 Level FlightAware ADS-B
Thu 03:05:19 PM 31.6860 -121.1220 241° Southwest 454 522 38,100 109 Climbing FlightAware ADS-B
Thu 03:06:05 PM 31.6450 -121.2070 240° Southwest 454 522 38,200 86 Climbing FlightAware ADS-B
Thu 03:06:29 PM 31.6250 -121.2510 242° Southwest 454 522 38,200  Level FlightAware ADS-B
Thu 03:07:05 PM 31.5930 -121.3170 240° Southwest 454 522 38,200  Level FlightAware ADS-B
Thu 03:07:41 PM 31.5620 -121.3830 241° Southwest 454 522 38,200  Level FlightAware ADS-B
Thu 03:08:27 PM 31.5220 -121.4680 241° Southwest 454 522 38,200  Level FlightAware ADS-B
Thu 03:09:28 PM 31.4700 -121.5790 241° Southwest 454 522 38,200  Level FlightAware ADS-B
Thu 03:10:04 PM 31.4390 -121.6450 241° Southwest 454 522 38,200  Level FlightAware ADS-B
Thu 03:10:52 PM 31.3970 -121.7330 241° Southwest 454 522 38,200  Level FlightAware ADS-B
Thu 03:11:35 PM 31.3600 -121.8120 241° Southwest 454 522 38,200  Level FlightAware ADS-B
Thu 03:12:11 PM 31.3290 -121.8770 241° Southwest 454 522 38,200  Level FlightAware ADS-B
Thu 03:12:59 PM 31.2870 -121.9650 241° Southwest 454 522 38,200  Level FlightAware ADS-B
Thu 03:13:36 PM 31.2550 -122.0330 241° Southwest 454 522 38,200  Level FlightAware ADS-B
Thu 03:14:13 PM 31.2230 -122.1000 241° Southwest 454 522 38,200  Level FlightAware ADS-B
Thu 03:15:01 PM 31.1810 -122.1880 241° Southwest 454 522 38,200 91 Level FlightAware ADS-B
Thu 03:19:00 PM 31.1063 -122.7678 262° West  Level Estimated
Thu 03:20:00 PM 31.0871 -122.9132 261° West  Level Estimated
Thu 03:21:00 PM 31.0678 -123.0585 261° West  Level Estimated
Thu 03:22:00 PM 31.0483 -123.2038 261° West  Level Estimated
Thu 03:22:58 PM 31.1333 -123.5500 256° West 437 503 39,000  Level Oakland Oceanic (ODAPS)
Thu 03:23:00 PM 31.0286 -123.3491 261° West  Level Estimated
Thu 03:23:19 PM 31.1167 -123.6333 256° West 435 501 39,000  Level Oakland Oceanic (ODAPS)
Thu 03:24:00 PM 31.0088 -123.4942 261° West  Level Estimated
Thu 03:25:00 PM 30.9888 -123.6394 261° West  Level Estimated
Thu 03:26:00 PM 30.9687 -123.7844 261° West  Level Estimated
Thu 03:27:00 PM 30.9484 -123.9294 261° West  Level Estimated
Thu 03:28:00 PM 30.9183 -124.0730 256° West  Level FlightAware Approximate
Thu 03:29:00 PM 30.9353 -124.4521 255° West 435 501 39,000  Level FlightAware Transoceanic
Thu 03:30:00 PM 30.9045 -124.5882 255° West 435 501 39,000  Level FlightAware Transoceanic
Thu 03:31:00 PM 30.8736 -124.7243 255° West 435 501 39,000  Level FlightAware Transoceanic
Thu 03:32:00 PM 30.8426 -124.8603 255° West 435 501 39,000  Level FlightAware Transoceanic
Thu 03:33:00 PM 30.8115 -124.9962 255° West 435 501 39,000  Level FlightAware Transoceanic
Thu 03:34:00 PM 30.7802 -125.1320 255° West 435 501 39,000  Level FlightAware Transoceanic
Thu 03:35:00 PM 30.7487 -125.2677 255° West 435 501 39,000  Level FlightAware Transoceanic
Thu 03:36:00 PM 30.7171 -125.4033 255° West 435 501 39,000  Level FlightAware Transoceanic
Thu 03:37:00 PM 30.6854 -125.5388 255° West 435 501 39,000  Level FlightAware Transoceanic
Thu 03:37:10 PM 30.6833 -125.5500 255° West 432 497 39,000  Level Oakland Oceanic (ODAPS)
Thu 03:38:00 PM 30.6535 -125.6743 255° West 435 501 39,000  Level FlightAware Transoceanic
Thu 03:39:00 PM 30.6215 -125.8096 255° West 435 501 39,000  Level FlightAware Transoceanic
Thu 03:40:00 PM 30.5894 -125.9449 255° West 435 501 39,000  Level FlightAware Transoceanic
Thu 03:41:00 PM 30.5571 -126.0801 254° West 435 501 39,000  Level FlightAware Transoceanic
Thu 03:42:00 PM 30.5247 -126.2152 254° West 435 501 39,000  Level FlightAware Transoceanic
Thu 03:43:00 PM 30.4903 -126.3597 254° West 432 497 39,000  Level FlightAware Transoceanic
Thu 03:44:00 PM 30.4576 -126.4943 254° West 432 497 39,000  Level FlightAware Transoceanic
Thu 03:45:00 PM 30.4248 -126.6288 254° West 432 497 39,000  Level FlightAware Transoceanic
Thu 03:46:00 PM 30.3919 -126.7633 254° West 432 497 39,000  Level FlightAware Transoceanic
Thu 03:47:00 PM 30.3588 -126.8976 254° West 432 497 39,000  Level FlightAware Transoceanic
Thu 03:48:00 PM 30.3256 -127.0319 254° West 432 497 39,000  Level FlightAware Transoceanic
Thu 03:49:00 PM 30.2922 -127.1661 254° West 432 497 39,000  Level FlightAware Transoceanic
Thu 03:50:00 PM 30.2587 -127.3001 254° West 432 497 39,000  Level FlightAware Transoceanic
Thu 03:51:00 PM 30.2251 -127.4341 254° West 432 497 39,000  Level FlightAware Transoceanic
Thu 03:51:02 PM 30.2333 -127.3833 254° West 424 488 39,000  Level Oakland Oceanic (ODAPS)
Thu 03:52:00 PM 30.1913 -127.5680 254° West 432 497 39,000  Level FlightAware Transoceanic
Thu 03:53:00 PM 30.1574 -127.7019 254° West 432 497 39,000  Level FlightAware Transoceanic
Thu 03:54:00 PM 30.1234 -127.8356 254° West 432 497 39,000  Level FlightAware Transoceanic
Thu 03:55:00 PM 30.0893 -127.9692 253° West 432 497 39,000  Level FlightAware Transoceanic
Thu 03:56:00 PM 30.0549 -128.1027 253° West 432 497 39,000  Level FlightAware Transoceanic
Thu 03:57:00 PM 30.0346 -128.1678 253° West 424 488 39,000  Level FlightAware Transoceanic
Thu 03:58:00 PM 30.0010 -128.2982 253° West 424 488 39,000  Level FlightAware Transoceanic
Thu 03:59:00 PM 29.9673 -128.4286 253° West 424 488 39,000  Level FlightAware Transoceanic
Thu 04:00:00 PM 29.9335 -128.5588 253° West 424 488 39,000  Level FlightAware Transoceanic
Thu 04:01:00 PM 29.8995 -128.6890 253° West 424 488 39,000  Level FlightAware Transoceanic
Thu 04:02:00 PM 29.8654 -128.8191 253° West 424 488 39,000  Level FlightAware Transoceanic
Thu 04:03:00 PM 29.8312 -128.9491 253° West 424 488 39,000  Level FlightAware Transoceanic
Thu 04:04:00 PM 29.7969 -129.0789 253° West 424 488 39,000  Level FlightAware Transoceanic
Thu 04:04:54 PM 29.7667 -129.1833 253° West 422 486 39,000  Level Oakland Oceanic (ODAPS)
Thu 04:05:00 PM 29.7624 -129.2088 253° West 424 488 39,000  Level FlightAware Transoceanic
Thu 04:06:00 PM 29.7278 -129.3385 253° West 424 488 39,000  Level FlightAware Transoceanic
Thu 04:07:00 PM 29.6931 -129.4681 253° West 424 488 39,000  Level FlightAware Transoceanic
Thu 04:08:00 PM 29.6582 -129.5977 253° West 424 488 39,000  Level FlightAware Transoceanic
Thu 04:09:00 PM 29.6233 -129.7271 253° West 424 488 39,000  Level FlightAware Transoceanic
Thu 04:10:00 PM 29.5882 -129.8565 253° West 424 488 39,000  Level FlightAware Transoceanic
Thu 04:11:00 PM 29.5555 -129.9713 253° West 422 486 39,000  Level FlightAware Transoceanic
Thu 04:12:00 PM 29.5198 -130.1023 253° West 422 486 39,000  Level FlightAware Transoceanic
Thu 04:13:00 PM 29.4840 -130.2332 253° West 422 486 39,000  Level FlightAware Transoceanic
Thu 04:14:00 PM 29.4481 -130.3640 252° West 422 486 39,000  Level FlightAware Transoceanic
Thu 04:15:00 PM 29.4121 -130.4947 252° West 422 486 39,000  Level FlightAware Transoceanic
Thu 04:16:00 PM 29.3759 -130.6253 252° West 422 486 39,000  Level FlightAware Transoceanic
Thu 04:17:00 PM 29.3396 -130.7559 252° West 422 486 39,000  Level FlightAware Transoceanic
Thu 04:18:00 PM 29.3032 -130.8863 252° West 422 486 39,000  Level FlightAware Transoceanic
Thu 04:18:46 PM 29.2833 -130.9667 249° West 358 412 39,000  Level Oakland Oceanic (ODAPS)
Thu 04:19:00 PM 29.2667 -131.0167 252° West 422 486 39,000  Level FlightAware Transoceanic
Thu 04:19:08 PM 29.2667 -131.0167 252° West 440 506 39,000  Level Oakland Oceanic (ODAPS)
Thu 04:20:00 PM 29.2289 -131.1500 252° West 422 486 39,000  Level FlightAware Transoceanic
Thu 04:21:00 PM 29.1910 -131.2832 252° West 422 486 39,000  Level FlightAware Transoceanic
Thu 04:22:00 PM 29.1529 -131.4163 252° West 422 486 39,000  Level FlightAware Transoceanic
Thu 04:23:00 PM 29.1147 -131.5493 252° West 422 486 39,000  Level FlightAware Transoceanic
Thu 04:24:00 PM 29.0764 -131.6822 252° West 422 486 39,000  Level FlightAware Transoceanic
Thu 04:25:00 PM 29.0379 -131.8150 252° West 440 506 39,000  Level FlightAware Transoceanic
Thu 04:26:00 PM 28.9994 -131.9477 252° West 440 506 39,000  Level FlightAware Transoceanic
Thu 04:27:00 PM 28.9606 -132.0804 252° West 440 506 39,000  Level FlightAware Transoceanic
Thu 04:28:00 PM 28.9218 -132.2129 251° West 440 506 39,000  Level FlightAware Transoceanic
Thu 04:29:00 PM 28.8828 -132.3453 251° West 440 506 39,000  Level FlightAware Transoceanic
Thu 04:30:00 PM 28.8437 -132.4776 251° West 440 506 39,000  Level FlightAware Transoceanic
Thu 04:31:00 PM 28.8045 -132.6098 251° West 440 506 39,000  Level FlightAware Transoceanic
Thu 04:32:00 PM 28.7652 -132.7419 251° West 440 506 39,000  Level FlightAware Transoceanic
Thu 04:32:38 PM 28.7667 -132.7500 251° West 432 497 39,000  Level Oakland Oceanic (ODAPS)
Thu 04:33:00 PM 28.7257 -132.8739 251° West 440 506 39,000  Level FlightAware Transoceanic
Thu 04:34:00 PM 28.6861 -133.0059 251° West 440 506 39,000  Level FlightAware Transoceanic
Thu 04:35:00 PM 28.6463 -133.1377 251° West 440 506 39,000  Level FlightAware Transoceanic
Thu 04:36:00 PM 28.6064 -133.2694 251° West 440 506 39,000  Level FlightAware Transoceanic
Thu 04:37:00 PM 28.5664 -133.4010 251° West 440 506 39,000  Level FlightAware Transoceanic
Thu 04:38:00 PM 28.5263 -133.5325 251° West 440 506 39,000  Level FlightAware Transoceanic
Thu 04:39:00 PM 28.4939 -133.6493 251° West 432 497 39,000  Level FlightAware Transoceanic
Thu 04:40:00 PM 28.4544 -133.7774 251° West 432 497 39,000  Level FlightAware Transoceanic
Thu 04:41:00 PM 28.4148 -133.9054 251° West 432 497 39,000  Level FlightAware Transoceanic
Thu 04:42:00 PM 28.3751 -134.0333 251° West 432 497 39,000  Level FlightAware Transoceanic
Thu 04:43:00 PM 28.3353 -134.1611 250° West 432 497 39,000  Level FlightAware Transoceanic
Thu 04:44:00 PM 28.2954 -134.2888 250° West 432 497 39,000  Level FlightAware Transoceanic
Thu 04:45:00 PM 28.2553 -134.4164 250° West 432 497 39,000  Level FlightAware Transoceanic
Thu 04:46:00 PM 28.2152 -134.5439 250° West 432 497 39,000  Level FlightAware Transoceanic
Thu 04:46:30 PM 28.2333 -134.4833 250° West 425 489 39,000  Level Oakland Oceanic (ODAPS)
Thu 04:47:00 PM 28.1749 -134.6714 250° West 432 497 39,000  Level FlightAware Transoceanic
Thu 04:48:00 PM 28.1345 -134.7987 250° West 432 497 39,000  Level FlightAware Transoceanic
Thu 04:49:00 PM 28.0939 -134.9259 250° West 432 497 39,000  Level FlightAware Transoceanic
Thu 04:50:00 PM 28.0533 -135.0530 250° West 432 497 39,000  Level FlightAware Transoceanic
Thu 04:51:00 PM 28.0125 -135.1801 250° West 432 497 39,000  Level FlightAware Transoceanic
Thu 04:52:00 PM 27.9946 -135.2334 250° West 425 489 39,000  Level FlightAware Transoceanic
Thu 04:53:00 PM 27.9545 -135.3580 250° West 425 489 39,000  Level FlightAware Transoceanic
Thu 04:54:00 PM 27.9142 -135.4826 250° West 425 489 39,000  Level FlightAware Transoceanic
Thu 04:55:00 PM 27.8738 -135.6071 250° West 425 489 39,000  Level FlightAware Transoceanic
Thu 04:56:00 PM 27.8333 -135.7315 250° West 425 489 39,000  Level FlightAware Transoceanic
Thu 04:57:00 PM 27.7927 -135.8558 250° West 425 489 39,000  Level FlightAware Transoceanic
Thu 04:58:00 PM 27.7519 -135.9801 250° West 425 489 39,000  Level FlightAware Transoceanic
Thu 04:59:00 PM 27.7111 -136.1042 250° West 425 489 39,000  Level FlightAware Transoceanic
Thu 05:00:00 PM 27.6701 -136.2282 250° West 425 489 39,000  Level FlightAware Transoceanic
Thu 05:00:22 PM 27.6667 -136.2167 250° West 421 484 39,000  Level Oakland Oceanic (ODAPS)
Thu 05:01:00 PM 27.6290 -136.3521 249° West 425 489 39,000  Level FlightAware Transoceanic
Thu 05:02:00 PM 27.5879 -136.4760 249° West 425 489 39,000  Level FlightAware Transoceanic
Thu 05:03:00 PM 27.5466 -136.5997 249° West 425 489 39,000  Level FlightAware Transoceanic
Thu 05:04:00 PM 27.5052 -136.7234 249° West 425 489 39,000  Level FlightAware Transoceanic
Thu 05:05:00 PM 27.4637 -136.8470 249° West 425 489 39,000  Level FlightAware Transoceanic
Thu 05:06:00 PM 27.4200 -136.9632 249° West 421 484 39,000  Level FlightAware Transoceanic
Thu 05:07:00 PM 27.3785 -137.0873 249° West 421 484 39,000  Level FlightAware Transoceanic
Thu 05:08:00 PM 27.3368 -137.2113 249° West 421 484 39,000  Level FlightAware Transoceanic
Thu 05:09:00 PM 27.2951 -137.3352 249° West 421 484 39,000  Level FlightAware Transoceanic
Thu 05:10:00 PM 27.2533 -137.4590 249° West 421 484 39,000  Level FlightAware Transoceanic
Thu 05:11:00 PM 27.2113 -137.5828 249° West 421 484 39,000  Level FlightAware Transoceanic
Thu 05:12:00 PM 27.1693 -137.7064 249° West 421 484 39,000  Level FlightAware Transoceanic
Thu 05:13:00 PM 27.1271 -137.8299 249° West 421 484 39,000  Level FlightAware Transoceanic
Thu 05:14:00 PM 27.0849 -137.9534 249° West 421 484 39,000  Level FlightAware Transoceanic
Thu 05:14:14 PM 27.0833 -137.9500 250° West 414 476 39,000  Level Oakland Oceanic (ODAPS)
Thu 05:15:00 PM 27.0425 -138.0767 249° West 421 484 39,000  Level FlightAware Transoceanic
Thu 05:16:00 PM 27.0000 -138.2000 249° West 421 484 39,000 606 Level FlightAware Transoceanic
Thu 05:16:39 PM 27.0000 -138.2000 249° West 438 504 40,000  Climbing Oakland Oceanic (ODAPS)
Thu 05:17:00 PM 26.9542 -138.3307 249° West 421 484 39,000 -741 Descending FlightAware Transoceanic
Thu 05:18:00 PM 26.9084 -138.4613 248° West 421 484 39,000  Level FlightAware Transoceanic
Thu 05:19:00 PM 26.8624 -138.5919 248° West 421 484 39,000  Level FlightAware Transoceanic
Thu 05:20:00 PM 26.8162 -138.7223 248° West 414 476 39,000  Level FlightAware Transoceanic
Thu 05:21:00 PM 26.7700 -138.8526 248° West 414 476 39,000 500 Level FlightAware Transoceanic
Thu 05:22:00 PM 26.7288 -138.9683 248° West 438 504 40,000 500 Climbing FlightAware Transoceanic
Thu 05:23:00 PM 26.6832 -139.0960 248° West 438 504 40,000  Level FlightAware Transoceanic
Thu 05:24:00 PM 26.6375 -139.2236 248° West 438 504 40,000  Level FlightAware Transoceanic
Thu 05:25:00 PM 26.5917 -139.3511 248° West 438 504 40,000  Level FlightAware Transoceanic
Thu 05:26:00 PM 26.5457 -139.4785 248° West 438 504 40,000  Level FlightAware Transoceanic
Thu 05:27:00 PM 26.4996 -139.6058 248° West 438 504 40,000  Level FlightAware Transoceanic
Thu 05:28:00 PM 26.4535 -139.7330 248° West 438 504 40,000  Level FlightAware Transoceanic
Thu 05:28:05 PM 26.4667 -139.6833 248° West 439 505 40,000  Level Oakland Oceanic (ODAPS)
Thu 05:29:00 PM 26.4072 -139.8600 248° West 438 504 40,000  Level FlightAware Transoceanic
Thu 05:30:00 PM 26.3608 -139.9870 248° West 438 504 40,000  Level FlightAware Transoceanic
Thu 05:31:00 PM 26.3143 -140.1139 248° West 438 504 40,000  Level FlightAware Transoceanic
Thu 05:32:00 PM 26.2677 -140.2407 248° West 438 504 40,000  Level FlightAware Transoceanic
Thu 05:33:00 PM 26.2209 -140.3674 248° West 438 504 40,000  Level FlightAware Transoceanic
Thu 05:34:00 PM 26.1856 -140.4516 248° West 439 505 40,000  Level FlightAware Transoceanic
Thu 05:35:00 PM 26.1384 -140.5793 248° West 439 505 40,000  Level FlightAware Transoceanic
Thu 05:36:00 PM 26.0910 -140.7068 248° West 439 505 40,000  Level FlightAware Transoceanic
Thu 05:37:00 PM 26.0436 -140.8343 247° West 439 505 40,000  Level FlightAware Transoceanic
Thu 05:38:00 PM 25.9960 -140.9617 247° West 439 505 40,000  Level FlightAware Transoceanic
Thu 05:39:00 PM 25.9483 -141.0889 247° West 439 505 40,000  Level FlightAware Transoceanic
Thu 05:40:00 PM 25.9006 -141.2161 247° West 439 505 40,000  Level FlightAware Transoceanic
Thu 05:41:00 PM 25.8526 -141.3431 247° West 439 505 40,000  Level FlightAware Transoceanic
Thu 05:41:58 PM 25.8167 -141.4333 247° West 440 506 40,000  Level Oakland Oceanic (ODAPS)
Thu 05:42:00 PM 25.8046 -141.4701 247° West 439 505 40,000  Level FlightAware Transoceanic
Thu 05:43:00 PM 25.7565 -141.5970 247° West 439 505 40,000  Level FlightAware Transoceanic
Thu 05:44:00 PM 25.7083 -141.7237 247° West 439 505 40,000  Level FlightAware Transoceanic
Thu 05:45:00 PM 25.6599 -141.8504 247° West 439 505 40,000  Level FlightAware Transoceanic
Thu 05:46:00 PM 25.6115 -141.9769 247° West 439 505 40,000  Level FlightAware Transoceanic
Thu 05:47:00 PM 25.5629 -142.1033 247° West 439 505 40,000  Level FlightAware Transoceanic
Thu 05:48:00 PM 25.5238 -142.2009 247° West 440 506 40,000  Level FlightAware Transoceanic
Thu 05:49:00 PM 25.4746 -142.3285 247° West 440 506 40,000  Level FlightAware Transoceanic
Thu 05:50:00 PM 25.4254 -142.4559 247° West 440 506 40,000  Level FlightAware Transoceanic
Thu 05:51:00 PM 25.3759 -142.5833 247° West 440 506 40,000  Level FlightAware Transoceanic
Thu 05:52:00 PM 25.3264 -142.7105 247° West 440 506 40,000  Level FlightAware Transoceanic
Thu 05:53:00 PM 25.2768 -142.8377 247° West 440 506 40,000  Level FlightAware Transoceanic
Thu 05:54:00 PM 25.2270 -142.9647 247° West 440 506 40,000  Level FlightAware Transoceanic
Thu 05:55:00 PM 25.1772 -143.0917 247° West 440 506 40,000  Level FlightAware Transoceanic
Thu 05:55:50 PM 25.1500 -143.1667 246° West 442 509 40,000  Level Oakland Oceanic (ODAPS)
Thu 05:56:00 PM 25.1272 -143.2185 246° West 440 506 40,000  Level FlightAware Transoceanic
Thu 05:57:00 PM 25.0772 -143.3452 246° West 440 506 40,000  Level FlightAware Transoceanic
Thu 05:58:00 PM 25.0270 -143.4719 246° West 440 506 40,000  Level FlightAware Transoceanic
Thu 05:59:00 PM 24.9767 -143.5984 246° West 440 506 40,000  Level FlightAware Transoceanic
Thu 06:00:00 PM 24.9263 -143.7248 246° West 440 506 40,000  Level FlightAware Transoceanic
Thu 06:01:00 PM 24.8758 -143.8511 246° West 440 506 40,000  Level FlightAware Transoceanic
Thu 06:02:00 PM 24.8384 -143.9479 246° West 442 509 40,000  Level FlightAware Transoceanic
Thu 06:03:00 PM 24.7861 -144.0777 246° West 442 509 40,000  Level FlightAware Transoceanic
Thu 06:04:00 PM 24.7336 -144.2074 246° West 442 509 40,000  Level FlightAware Transoceanic
Thu 06:05:00 PM 24.6811 -144.3370 246° West 442 509 40,000  Level FlightAware Transoceanic
Thu 06:06:00 PM 24.6284 -144.4665 246° West 442 509 40,000  Level FlightAware Transoceanic
Thu 06:07:00 PM 24.5756 -144.5959 246° West 442 509 40,000  Level FlightAware Transoceanic
Thu 06:08:00 PM 24.5228 -144.7251 246° West 442 509 40,000  Level FlightAware Transoceanic
Thu 06:09:00 PM 24.4698 -144.8543 246° West 442 509 40,000  Level FlightAware Transoceanic
Thu 06:09:42 PM 24.4500 -144.9000 246° West 388 447 40,000  Level Oakland Oceanic (ODAPS)
Thu 06:10:00 PM 24.4167 -144.9833 246° West 442 509 40,000  Level FlightAware Transoceanic
Thu 06:10:39 PM 24.4167 -144.9833 246° West 447 514 40,000  Level Oakland Oceanic (ODAPS)
Thu 06:11:00 PM 24.3641 -145.1107 246° West 442 509 40,000  Level FlightAware Transoceanic
Thu 06:12:00 PM 24.3114 -145.2379 246° West 442 509 40,000  Level FlightAware Transoceanic
Thu 06:13:00 PM 24.2586 -145.3649 245° Southwest 442 509 40,000  Level FlightAware Transoceanic
Thu 06:14:00 PM 24.2058 -145.4919 245° Southwest 442 509 40,000  Level FlightAware Transoceanic
Thu 06:15:00 PM 24.1528 -145.6188 245° Southwest 442 509 40,000  Level FlightAware Transoceanic
Thu 06:16:00 PM 24.0997 -145.7456 245° Southwest 388 447 40,000  Level FlightAware Transoceanic
Thu 06:17:00 PM 24.0535 -145.8556 245° Southwest 447 514 40,000  Level FlightAware Transoceanic
Thu 06:18:00 PM 24.0012 -145.9798 245° Southwest 447 514 40,000  Level FlightAware Transoceanic
Thu 06:19:00 PM 23.9489 -146.1039 245° Southwest 447 514 40,000  Level FlightAware Transoceanic
Thu 06:20:00 PM 23.8964 -146.2279 245° Southwest 447 514 40,000  Level FlightAware Transoceanic
Thu 06:21:00 PM 23.8438 -146.3518 245° Southwest 447 514 40,000  Level FlightAware Transoceanic
Thu 06:22:00 PM 23.7911 -146.4756 245° Southwest 447 514 40,000  Level FlightAware Transoceanic
Thu 06:23:00 PM 23.7383 -146.5993 245° Southwest 447 514 40,000  Level FlightAware Transoceanic
Thu 06:23:34 PM 23.7167 -146.6167 245° Southwest 447 514 40,000  Level Oakland Oceanic (ODAPS)
Thu 06:24:00 PM 23.6855 -146.7229 245° Southwest 447 514 40,000  Level FlightAware Transoceanic
Thu 06:25:00 PM 23.6325 -146.8464 245° Southwest 447 514 40,000  Level FlightAware Transoceanic
Thu 06:26:00 PM 23.5794 -146.9698 245° Southwest 447 514 40,000  Level FlightAware Transoceanic
Thu 06:27:00 PM 23.5262 -147.0931 245° Southwest 447 514 40,000  Level FlightAware Transoceanic
Thu 06:28:00 PM 23.4730 -147.2163 245° Southwest 447 514 40,000  Level FlightAware Transoceanic
Thu 06:29:00 PM 23.4011 -147.3540 245° Southwest 447 514 40,000  Level FlightAware Transoceanic
Thu 06:30:00 PM 23.3482 -147.4765 245° Southwest 447 514 40,000  Level FlightAware Transoceanic
Thu 06:31:00 PM 23.2952 -147.5990 245° Southwest 447 514 40,000  Level FlightAware Transoceanic
Thu 06:32:00 PM 23.2421 -147.7213 245° Southwest 447 514 40,000  Level FlightAware Transoceanic
Thu 06:33:00 PM 23.1888 -147.8436 245° Southwest 447 514 40,000  Level FlightAware Transoceanic
Thu 06:34:00 PM 23.1355 -147.9657 245° Southwest 447 514 40,000  Level FlightAware Transoceanic
Thu 06:35:00 PM 23.0821 -148.0878 245° Southwest 447 514 40,000  Level FlightAware Transoceanic
Thu 06:36:00 PM 23.0286 -148.2098 244° Southwest 447 514 40,000  Level FlightAware Transoceanic
Thu 06:37:00 PM 22.9750 -148.3316 244° Southwest 447 514 40,000  Level FlightAware Transoceanic
Thu 06:37:25 PM 22.9833 -148.3333 244° Southwest 446 513 40,000  Level Oakland Oceanic (ODAPS)
Thu 06:38:00 PM 22.9214 -148.4534 244° Southwest 447 514 40,000  Level FlightAware Transoceanic
Thu 06:39:00 PM 22.8676 -148.5751 244° Southwest 447 514 40,000  Level FlightAware Transoceanic
Thu 06:40:00 PM 22.8137 -148.6967 244° Southwest 447 514 40,000  Level FlightAware Transoceanic
Thu 06:41:00 PM 22.7598 -148.8181 244° Southwest 447 514 40,000  Level FlightAware Transoceanic
Thu 06:42:00 PM 22.7057 -148.9395 244° Southwest 447 514 40,000  Level FlightAware Transoceanic
Thu 06:43:00 PM 22.6579 -149.0621 244° Southwest 446 513 40,000  Level FlightAware Transoceanic
Thu 06:44:00 PM 22.6034 -149.1833 244° Southwest 446 513 40,000  Level FlightAware Transoceanic
Thu 06:45:00 PM 22.5487 -149.3043 244° Southwest 446 513 40,000  Level FlightAware Transoceanic
Thu 06:46:00 PM 22.4940 -149.4252 244° Southwest 446 513 40,000  Level FlightAware Transoceanic
Thu 06:47:00 PM 22.4392 -149.5461 244° Southwest 446 513 40,000  Level FlightAware Transoceanic
Thu 06:48:00 PM 22.3843 -149.6668 244° Southwest 446 513 40,000  Level FlightAware Transoceanic
Thu 06:49:00 PM 22.3293 -149.7875 244° Southwest 446 513 40,000  Level FlightAware Transoceanic
Thu 06:50:00 PM 22.2742 -149.9080 244° Southwest 446 513 40,000  Level FlightAware Transoceanic
Thu 06:51:00 PM 22.2190 -150.0285 244° Southwest 446 513 40,000  Level FlightAware Transoceanic
Thu 06:51:17 PM 22.2167 -150.0167 244° Southwest 448 516 40,000  Level Oakland Oceanic (ODAPS)
Thu 06:52:00 PM 22.1637 -150.1488 244° Southwest 446 513 40,000  Level FlightAware Transoceanic
Thu 06:53:00 PM 22.1084 -150.2691 244° Southwest 446 513 40,000  Level FlightAware Transoceanic
Thu 06:54:00 PM 22.0529 -150.3893 244° Southwest 446 513 40,000  Level FlightAware Transoceanic
Thu 06:55:00 PM 21.9974 -150.5094 243° Southwest 446 513 40,000  Level FlightAware Transoceanic
Thu 06:56:00 PM 21.9418 -150.6294 243° Southwest 446 513 40,000  Level FlightAware Transoceanic
Thu 06:57:00 PM 21.8849 -150.7434 244° Southwest 448 516 40,000  Level FlightAware Transoceanic
Thu 06:58:00 PM 21.8293 -150.8642 244° Southwest 448 516 40,000  Level FlightAware Transoceanic
Thu 06:59:00 PM 21.7736 -150.9848 244° Southwest 448 516 40,000  Level FlightAware Transoceanic
Thu 07:00:00 PM 21.7178 -151.1054 244° Southwest 448 516 40,000  Level FlightAware Transoceanic
Thu 07:00:20 PM 21.7167 -151.1167 243° Southwest 454 522 40,000  Level Oakland Oceanic (ODAPS)
Thu 07:01:00 PM 21.6620 -151.2259 243° Southwest 448 516 40,000  Level FlightAware Transoceanic
Thu 07:01:38 PM 21.6500 -151.2833 242° Southwest 450 518 40,000  Level Honolulu Center
Thu 07:02:00 PM 21.6060 -151.3463 243° Southwest 448 516 40,000  Level FlightAware Transoceanic
Thu 07:02:39 PM 21.6000 -151.3833 242° Southwest 460 529 40,000  Level Honolulu Center
Thu 07:03:00 PM 21.5500 -151.4667 243° Southwest 448 516 40,000  Level FlightAware Transoceanic
Thu 07:03:39 PM 21.5167 -151.5167 236° Southwest 450 518 40,000  Level Honolulu Center
Thu 07:04:00 PM 21.4928 -151.5852 243° Southwest 448 516 40,000  Level FlightAware Transoceanic
Thu 07:05:00 PM 21.4355 -151.7036 243° Southwest 448 516 40,000  Level FlightAware Transoceanic
Thu 07:06:00 PM 21.3782 -151.8219 242° Southwest 454 522 40,000  Level FlightAware Transoceanic
Thu 07:06:40 PM 21.4500 -151.9167 260° West 460 529 40,000  Level Honolulu Center
Thu 07:07:00 PM 21.3207 -151.9401 242° Southwest 454 522 40,000  Level FlightAware Transoceanic
Thu 07:07:41 PM 21.4333 -152.0500 262° West 460 529 40,000  Level Honolulu Center
Thu 07:08:41 PM 21.4167 -152.1833 262° West 460 529 40,000  Level Honolulu Center
Thu 07:09:41 PM 21.4000 -152.3167 262° West 450 518 40,000  Level Honolulu Center
Thu 07:11:42 PM 21.3667 -152.5833 262° West 460 529 40,000  Level Honolulu Center
Thu 07:12:42 PM 21.3500 -152.7167 262° West 450 518 40,000  Level Honolulu Center
Thu 07:13:43 PM 21.3333 -152.8500 262° West 450 518 40,000  Level Honolulu Center
Thu 07:14:43 PM 21.3167 -152.9833 262° West 450 518 40,000  Level Honolulu Center
Thu 07:15:43 PM 21.3000 -153.1167 262° West 450 518 40,000  Level Honolulu Center
Thu 07:16:43 PM 21.2833 -153.2667 263° West 450 518 40,000  Level Honolulu Center
Thu 07:17:44 PM 21.2667 -153.4000 262° West 460 529 40,000  Level Honolulu Center
Thu 07:18:44 PM 21.2500 -153.5333 262° West 460 529 40,000  Level Honolulu Center
Thu 07:19:44 PM 21.2333 -153.6667 262° West 460 529 40,000  Level Honolulu Center
Thu 07:20:45 PM 21.2167 -153.8000 262° West 450 518 40,000  Level Honolulu Center
Thu 07:21:45 PM 21.2000 -153.9333 262° West 460 529 40,000  Level Honolulu Center
Thu 07:22:45 PM 21.1833 -154.0667 262° West 450 518 40,000  Level Honolulu Center
Thu 07:23:46 PM 21.1667 -154.2000 262° West 450 518 40,000  Level Honolulu Center
Thu 07:24:46 PM 21.1333 -154.3667 258° West 450 518 40,000  Level Honolulu Center
Thu 07:25:46 PM 21.1167 -154.5000 262° West 460 529 40,000  Level Honolulu Center
Thu 07:26:47 PM 21.1000 -154.6333 262° West 450 518 40,000  Level Honolulu Center
Thu 07:27:47 PM 21.0833 -154.7500 261° West 450 518 40,000  Level Honolulu Center
Thu 07:28:48 PM 21.0667 -154.8667 261° West 440 506 40,000  Level Honolulu Center
Thu 07:29:48 PM 21.0500 -155.0000 262° West 450 518 40,000  Level Honolulu Center
Thu 07:30:48 PM 21.0333 -155.1333 262° West 450 518 40,000 -176 Level Honolulu Center
Thu 07:37:11 PM 20.9070 -156.0160 262° West 455 524 38,700 -312 Descending FlightAware ADS-B
Thu 07:37:51 PM 20.8950 -156.1030 262° West 458 527 37,800 -1,650 Descending FlightAware ADS-B
Thu 07:38:31 PM 20.8820 -156.1920 261° West 455 524 36,500 -2,368 Descending FlightAware ADS-B
Thu 07:39:07 PM 20.8690 -156.2760 261° West 459 528 34,800 -2,747 Descending FlightAware ADS-B
Thu 07:39:54 PM 20.8540 -156.3800 261° West 469 540 32,700 -2,621 Descending FlightAware ADS-B
Thu 07:40:34 PM 20.8400 -156.4710 261° West 474 545 31,000 -2,250 Descending FlightAware ADS-B
Thu 07:41:14 PM 20.8270 -156.5590 261° West 468 539 29,700 -1,350 Descending FlightAware ADS-B
Thu 07:41:54 PM 20.8140 -156.6440 261° West 466 536 29,200 -1,271 Descending FlightAware ADS-B
Thu 07:42:39 PM 20.7960 -156.7600 261° West 475 547 27,900 -2,374 Descending FlightAware ADS-B
Thu 07:43:25 PM 20.7820 -156.8660 262° West 488 562 25,600 -2,581 Descending FlightAware ADS-B
Thu 07:44:05 PM 20.7820 -156.9600 270° West 474 545 24,200 -2,250 Descending FlightAware ADS-B
Thu 07:44:45 PM 20.7950 -157.0520 279° West 462 532 22,600 -2,625 Descending FlightAware ADS-B
Thu 07:45:25 PM 20.8210 -157.1420 287° West 460 529 20,700 -2,682 Descending FlightAware ADS-B
Thu 07:46:10 PM 20.8510 -157.2370 289° West 450 518 18,800 -2,000 Descending FlightAware ADS-B
Thu 07:46:55 PM 20.8810 -157.3290 289° West 429 494 17,700 -1,129 Descending FlightAware ADS-B
Thu 07:47:35 PM 20.9060 -157.4060 289° West 393 452 17,200 -975 Descending FlightAware ADS-B
Thu 07:48:15 PM 20.9280 -157.4750 289° West 352 405 16,400 -1,624 Descending FlightAware ADS-B
Thu 07:49:00 PM 20.9510 -157.5470 289° West 340 391 14,900 -2,329 Descending FlightAware ADS-B
Thu 07:49:40 PM 20.9710 -157.6110 289° West 330 380 13,100 -2,480 Descending FlightAware ADS-B
Thu 07:50:15 PM 20.9860 -157.6590 289° West 319 367 11,800 -2,625 Descending FlightAware ADS-B
Thu 07:51:00 PM 21.0090 -157.7320 289° West 317 365 9,600 -2,229 Descending FlightAware ADS-B
Thu 07:51:25 PM 21.0190 -157.7650 288° West 291 335 9,200 -1,527 Descending FlightAware ADS-B
Thu 07:51:55 PM 21.0310 -157.8030 289° West 284 327 8,200 -2,073 Descending FlightAware ADS-B
Thu 07:52:20 PM 21.0420 -157.8400 288° West 282 325 7,300 -1,650 Descending FlightAware ADS-B
Thu 07:52:35 PM 21.0490 -157.8600 291° West 277 319 7,100 -750 Descending FlightAware ADS-B
Thu 07:53:00 PM 21.0580 -157.8910 287° West 259 298 6,800 -873 Descending FlightAware ADS-B
Thu 07:53:30 PM 21.0690 -157.9260 289° West 254 292 6,300 -933 Descending FlightAware ADS-B
Thu 07:53:45 PM 21.0740 -157.9430 287° West 255 293 6,100 -933 Descending FlightAware ADS-B
Thu 07:54:15 PM 21.0850 -157.9810 287° West 251 289 5,600 -1,100 Descending FlightAware ADS-B
Thu 07:54:45 PM 21.0940 -158.0130 287° West 252 290 5,000 -1,440 Descending FlightAware ADS-B
Thu 07:55:05 PM 21.1040 -158.0350 296° West 247 284 4,400 -783 Descending FlightAware ADS-B
Thu 07:55:31 PM 21.1180 -158.0580 303° West 247 284 4,400  Level FlightAware ADS-B

Login

Don't have an account? Register now (free) for customized features, flight alerts, and more!